Terminal Aerodrome Forecast
Issued by NWS Detroit/Pontiac, MI

Home | Current Version | Previous Version | Text Only | Print | Product List | Glossary On
Versions: 1 2 3 4 5 6 7 8 9 10 11 12 13 14 15 16 17 18 19 20 21
000
FTUS43 KDTX 031134
TAFFNT
TAF
KFNT 031134Z 0312/0412 00000KT 4SM BR FEW045
     FM031300 32005KT P6SM SCT045 BKN120
      TEMPO 0319/0323 1SM TSRA BKN035CB BKN050
     FM040100 VRB03KT P6SM SCT045 BKN100
     FM040400 VRB03KT 4SM BR SCT100
     FM040700 00000KT 3/4SM BR SCT100=

USA.gov is the U.S. government's official web portal to all federal, state and local government web resources and services.